Isle of Harris, United Kingdom
Current Conditions -  °F | °C
As of 7:50 PM on Friday 24 Oct 2014 (Local Time) from EGPO Reporting Station
Light Rain Light Rain  
Wind Chill: 41°   Ceiling: Unl
Heat Index: 48°   Visibility: 5mi
Dew Point: 43°   Wind: 20mph
Humidity: 82%   Direction: 220°SW
Pressure: 29.5"   Gusts: 33mph
Location:  57.99°N, 6.75°W
Report Text: EGPO 241850Z AUTO 22017G29KT 8000 -RA FEW019/// 09/06 Q0999
Loading
Personal Weather Stations






























Interactive Weather Map
Tropical Storm Tracking
New forecast layout! Learn more

10-Day Weather Forecast

Advertisements
Track Severe Weather on mobile